Parachute, CO

8:06 AM MDT on October 23, 2014 (GMT -0600)
RAWS GJDBLMFTS CO US | Change Station
CLOSE
Current Station
Personal Weather Station
Location: Parachute, CO
Elevation: 2630 m
Nearby Weather Stations

Elev 2630 m 39.57 °N, 108.00 °W | Updated 1 hour ago

Clear
Clear
5.6 °C
Feels Like 4 °C
N
6.4
Wind Variable Wind from SE
Gusts 11.3 km/h

Today
High -- | Low -- °C
--% Chance of Precip.
Yesterday
High -- | Low -- °C
Precip. -- mm
7:30 AM 6:21 PM
Waning Crescent, 0% visible
Pressure 1025 hPa
Visibility 16.1 kilometers
Clouds Clear
Windchill 4 °C
Dew Point -3 °C
Humidity 56%
Rainfall 1 mm
Snow Depth Not available.
UV 0 out of 12
Pollen 1.40 out of 12
Air Quality Not available.
Flu Activity Sporadic
METAR KRIL 231353Z AUTO 00000KT 10SM CLR 02/01 A3030 RMK AO2 SLP249 T00170006

More Conditions Fewer Conditions

Pressure 1025 hPa
Visibility 16.1 kilometers
Clouds Clear
Windchill 4 °C
Dew Point -3 °C
Humidity 56%
Rainfall 1 mm
Snow Depth Not available.
UV 0 out of 12
Pollen 1.40 out of 12
Air Quality Not available.
Flu Activity Sporadic
METAR KRIL 231353Z AUTO 00000KT 10SM CLR 02/01 A3030 RMK AO2 SLP249 T00170006

More Conditions Fewer Conditions

10-Day Weather Forecast

Almanac

Astronomy

Oct. 23, 2014 Rise Set
Actual Time 7:30 AM MDT 6:21 PM MDT
Civil Twilight 7:03 AM MDT 6:48 PM MDT
Nautical Twilight 6:31 AM MDT 7:20 PM MDT
Astronomical Twilight 6:00 AM MDT 7:51 PM MDT
Moon 7:13 AM MDT 6:24 PM MDT
Length of Visible Light 11h 45m
Length of Day
10h 50m
Tomorrow will be 2m 25s shorter.
Waning Crescent, 0% of the Moon is Illuminated
Today
Waning Crescent
Oct 23
New
Oct 30
First Quarter
Nov 6
Full
Nov 14
Last Quarter

Today's Extremes

State Highs State Lows

Community

WunderPhotos

Upload Photos

1,764,247 photos uploaded!

Nearby

Snow Depth

Station Depth Elevation
Burro Mountain 0 in 9400 ft
Mesa Lakes 0 in 10000 ft
Bison Lake 1 in 10880 ft
Park Reservoir 1 in 9960 ft
Overland Reservoir 0 in 9880 ft

Earthquake Activity

City Distance Mag. Time & Date
No recent earthquake activity has been reported nearby.
Minimum magnitude displayed is 2.5.

Coastal Water Temperatures

Place Temperature
No Stations Reporting

Nearby Weather Stations